sensor_id;sensor_type;location;lat;lon;timestamp;P1;durP1;ratioP1;P2;durP2;ratioP2
47659;SDS011;33403;43.608;1.458;2023-09-12T00:00:55;6.28;;;3.05;;
47659;SDS011;33403;43.608;1.458;2023-09-12T00:03:22;4.25;;;2.97;;
47659;SDS011;33403;43.608;1.458;2023-09-12T00:05:52;3.47;;;2.80;;
47659;SDS011;33403;43.608;1.458;2023-09-12T00:08:18;3.50;;;2.90;;
47659;SDS011;33403;43.608;1.458;2023-09-12T00:10:43;3.70;;;2.80;;
47659;SDS011;33403;43.608;1.458;2023-09-12T00:13:09;5.38;;;2.70;;
47659;SDS011;33403;43.608;1.458;2023-09-12T00:15:35;4.97;;;2.50;;
47659;SDS011;33403;43.608;1.458;2023-09-12T00:18:00;4.00;;;2.65;;
47659;SDS011;33403;43.608;1.458;2023-09-12T00:20:26;3.50;;;2.72;;
47659;SDS011;33403;43.608;1.458;2023-09-12T00:22:52;4.28;;;2.75;;
47659;SDS011;33403;43.608;1.458;2023-09-12T00:25:19;5.78;;;2.97;;
47659;SDS011;33403;43.608;1.458;2023-09-12T00:27:45;3.88;;;2.67;;
47659;SDS011;33403;43.608;1.458;2023-09-12T00:30:11;4.97;;;2.80;;
47659;SDS011;33403;43.608;1.458;2023-09-12T00:32:39;5.13;;;3.30;;
47659;SDS011;33403;43.608;1.458;2023-09-12T00:35:04;4.93;;;2.70;;
47659;SDS011;33403;43.608;1.458;2023-09-12T00:37:30;3.42;;;2.90;;
47659;SDS011;33403;43.608;1.458;2023-09-12T00:39:56;5.30;;;3.10;;
47659;SDS011;33403;43.608;1.458;2023-09-12T00:42:24;5.95;;;3.10;;
47659;SDS011;33403;43.608;1.458;2023-09-12T00:44:51;4.00;;;2.60;;
47659;SDS011;33403;43.608;1.458;2023-09-12T00:47:16;5.30;;;2.70;;
47659;SDS011;33403;43.608;1.458;2023-09-12T00:49:42;3.80;;;2.80;;
47659;SDS011;33403;43.608;1.458;2023-09-12T00:52:09;3.25;;;2.63;;
47659;SDS011;33403;43.608;1.458;2023-09-12T00:54:36;3.65;;;2.80;;
47659;SDS011;33403;43.608;1.458;2023-09-12T00:57:01;5.35;;;3.08;;
47659;SDS011;33403;43.608;1.458;2023-09-12T00:59:27;3.50;;;2.80;;
47659;SDS011;33403;43.608;1.458;2023-09-12T01:01:53;4.55;;;2.90;;
47659;SDS011;33403;43.608;1.458;2023-09-12T01:04:19;5.15;;;3.13;;
47659;SDS011;33403;43.608;1.458;2023-09-12T01:06:46;5.22;;;3.00;;
47659;SDS011;33403;43.608;1.458;2023-09-12T01:09:13;4.18;;;3.10;;
47659;SDS011;33403;43.608;1.458;2023-09-12T01:11:39;5.13;;;2.80;;
47659;SDS011;33403;43.608;1.458;2023-09-12T01:14:06;4.45;;;2.88;;
47659;SDS011;33403;43.608;1.458;2023-09-12T01:16:31;4.35;;;2.95;;
47659;SDS011;33403;43.608;1.458;2023-09-12T01:18:57;4.40;;;2.90;;
47659;SDS011;33403;43.608;1.458;2023-09-12T01:21:41;3.97;;;2.80;;
47659;SDS011;33403;43.608;1.458;2023-09-12T01:27:33;5.00;;;3.00;;
47659;SDS011;33403;43.608;1.458;2023-09-12T01:30:01;4.55;;;2.90;;
47659;SDS011;33403;43.608;1.458;2023-09-12T01:32:29;3.67;;;3.00;;
47659;SDS011;33403;43.608;1.458;2023-09-12T01:34:58;5.72;;;2.70;;
47659;SDS011;33403;43.608;1.458;2023-09-12T01:37:23;4.80;;;2.92;;
47659;SDS011;33403;43.608;1.458;2023-09-12T01:39:49;6.15;;;3.00;;
47659;SDS011;33403;43.608;1.458;2023-09-12T01:42:15;4.65;;;2.80;;
47659;SDS011;33403;43.608;1.458;2023-09-12T01:44:44;3.35;;;2.75;;
47659;SDS011;33403;43.608;1.458;2023-09-12T01:47:11;6.32;;;3.22;;
47659;SDS011;33403;43.608;1.458;2023-09-12T01:49:39;4.45;;;3.17;;
47659;SDS011;33403;43.608;1.458;2023-09-12T01:52:08;3.95;;;2.75;;
47659;SDS011;33403;43.608;1.458;2023-09-12T01:54:34;4.00;;;2.90;;
47659;SDS011;33403;43.608;1.458;2023-09-12T01:57:02;4.47;;;2.50;;
47659;SDS011;33403;43.608;1.458;2023-09-12T01:59:29;4.05;;;2.90;;
47659;SDS011;33403;43.608;1.458;2023-09-12T02:01:55;4.63;;;3.08;;
47659;SDS011;33403;43.608;1.458;2023-09-12T02:04:20;5.07;;;3.20;;
47659;SDS011;33403;43.608;1.458;2023-09-12T02:06:46;7.25;;;3.95;;
47659;SDS011;33403;43.608;1.458;2023-09-12T02:09:12;4.00;;;3.28;;
47659;SDS011;33403;43.608;1.458;2023-09-12T02:11:37;5.75;;;3.60;;
47659;SDS011;33403;43.608;1.458;2023-09-12T02:14:03;4.70;;;3.58;;
47659;SDS011;33403;43.608;1.458;2023-09-12T02:16:29;12.80;;;4.80;;
47659;SDS011;33403;43.608;1.458;2023-09-12T02:18:56;11.02;;;4.65;;
47659;SDS011;33403;43.608;1.458;2023-09-12T02:21:21;8.25;;;4.30;;
47659;SDS011;33403;43.608;1.458;2023-09-12T02:23:47;7.97;;;4.20;;
47659;SDS011;33403;43.608;1.458;2023-09-12T02:26:13;6.78;;;4.28;;
47659;SDS011;33403;43.608;1.458;2023-09-12T02:28:38;7.95;;;3.90;;
47659;SDS011;33403;43.608;1.458;2023-09-12T02:31:09;10.45;;;4.57;;
47659;SDS011;33403;43.608;1.458;2023-09-12T02:33:37;7.38;;;4.03;;
47659;SDS011;33403;43.608;1.458;2023-09-12T02:36:03;9.20;;;4.40;;
47659;SDS011;33403;43.608;1.458;2023-09-12T02:38:29;6.03;;;4.00;;
47659;SDS011;33403;43.608;1.458;2023-09-12T02:40:55;5.55;;;4.00;;
47659;SDS011;33403;43.608;1.458;2023-09-12T02:43:21;6.75;;;4.40;;
47659;SDS011;33403;43.608;1.458;2023-09-12T02:45:46;6.18;;;4.60;;
47659;SDS011;33403;43.608;1.458;2023-09-12T02:48:12;9.27;;;4.50;;
47659;SDS011;33403;43.608;1.458;2023-09-12T02:50:38;5.57;;;4.20;;
47659;SDS011;33403;43.608;1.458;2023-09-12T02:53:03;5.30;;;4.05;;
47659;SDS011;33403;43.608;1.458;2023-09-12T02:55:29;7.07;;;4.20;;
47659;SDS011;33403;43.608;1.458;2023-09-12T02:57:55;6.30;;;4.15;;
47659;SDS011;33403;43.608;1.458;2023-09-12T03:00:20;7.38;;;4.22;;
47659;SDS011;33403;43.608;1.458;2023-09-12T03:02:46;7.38;;;4.60;;
47659;SDS011;33403;43.608;1.458;2023-09-12T03:05:12;8.70;;;5.05;;
47659;SDS011;33403;43.608;1.458;2023-09-12T03:07:37;7.32;;;4.40;;
47659;SDS011;33403;43.608;1.458;2023-09-12T03:10:03;5.90;;;4.55;;
47659;SDS011;33403;43.608;1.458;2023-09-12T03:12:29;6.32;;;4.70;;
47659;SDS011;33403;43.608;1.458;2023-09-12T03:14:55;6.53;;;4.35;;
47659;SDS011;33403;43.608;1.458;2023-09-12T03:17:21;6.28;;;4.53;;
47659;SDS011;33403;43.608;1.458;2023-09-12T03:19:47;7.97;;;4.82;;
47659;SDS011;33403;43.608;1.458;2023-09-12T03:22:12;6.80;;;4.28;;
47659;SDS011;33403;43.608;1.458;2023-09-12T03:24:38;7.03;;;4.40;;
47659;SDS011;33403;43.608;1.458;2023-09-12T03:27:04;7.93;;;5.10;;
47659;SDS011;33403;43.608;1.458;2023-09-12T03:29:29;9.15;;;5.05;;
47659;SDS011;33403;43.608;1.458;2023-09-12T03:31:55;7.18;;;4.65;;
47659;SDS011;33403;43.608;1.458;2023-09-12T03:34:20;7.10;;;4.88;;
47659;SDS011;33403;43.608;1.458;2023-09-12T03:36:46;6.72;;;4.47;;
47659;SDS011;33403;43.608;1.458;2023-09-12T03:39:12;8.40;;;4.95;;
47659;SDS011;33403;43.608;1.458;2023-09-12T03:41:38;8.88;;;4.25;;
47659;SDS011;33403;43.608;1.458;2023-09-12T03:44:04;8.40;;;5.38;;
47659;SDS011;33403;43.608;1.458;2023-09-12T03:46:30;6.68;;;4.78;;
47659;SDS011;33403;43.608;1.458;2023-09-12T03:48:56;6.78;;;4.80;;
47659;SDS011;33403;43.608;1.458;2023-09-12T03:51:22;6.07;;;4.43;;
47659;SDS011;33403;43.608;1.458;2023-09-12T03:53:47;7.13;;;4.60;;
47659;SDS011;33403;43.608;1.458;2023-09-12T03:56:15;7.93;;;5.10;;
47659;SDS011;33403;43.608;1.458;2023-09-12T03:58:41;7.38;;;4.90;;
47659;SDS011;33403;43.608;1.458;2023-09-12T04:01:06;4.90;;;4.40;;
47659;SDS011;33403;43.608;1.458;2023-09-12T04:03:32;7.05;;;4.55;;
47659;SDS011;33403;43.608;1.458;2023-09-12T04:05:58;6.05;;;4.90;;
47659;SDS011;33403;43.608;1.458;2023-09-12T04:08:23;6.35;;;4.55;;
47659;SDS011;33403;43.608;1.458;2023-09-12T04:10:49;6.57;;;5.10;;
47659;SDS011;33403;43.608;1.458;2023-09-12T04:13:15;8.30;;;4.80;;
47659;SDS011;33403;43.608;1.458;2023-09-12T04:15:40;7.82;;;5.30;;
47659;SDS011;33403;43.608;1.458;2023-09-12T04:18:06;7.25;;;4.90;;
47659;SDS011;33403;43.608;1.458;2023-09-12T04:20:31;8.23;;;4.85;;
47659;SDS011;33403;43.608;1.458;2023-09-12T04:23:00;7.82;;;4.97;;
47659;SDS011;33403;43.608;1.458;2023-09-12T04:25:27;7.10;;;5.10;;
47659;SDS011;33403;43.608;1.458;2023-09-12T04:27:53;6.97;;;4.80;;
47659;SDS011;33403;43.608;1.458;2023-09-12T04:30:19;7.40;;;4.97;;
47659;SDS011;33403;43.608;1.458;2023-09-12T04:32:44;7.28;;;5.25;;
47659;SDS011;33403;43.608;1.458;2023-09-12T04:35:10;8.07;;;4.93;;
47659;SDS011;33403;43.608;1.458;2023-09-12T04:37:36;7.93;;;5.05;;
47659;SDS011;33403;43.608;1.458;2023-09-12T04:40:02;7.88;;;5.00;;
47659;SDS011;33403;43.608;1.458;2023-09-12T04:42:30;6.63;;;4.95;;
47659;SDS011;33403;43.608;1.458;2023-09-12T04:44:56;7.72;;;5.13;;
47659;SDS011;33403;43.608;1.458;2023-09-12T04:47:22;6.75;;;4.70;;
47659;SDS011;33403;43.608;1.458;2023-09-12T04:49:48;7.13;;;5.15;;
47659;SDS011;33403;43.608;1.458;2023-09-12T04:52:14;7.00;;;4.95;;
47659;SDS011;33403;43.608;1.458;2023-09-12T04:54:39;6.32;;;5.03;;
47659;SDS011;33403;43.608;1.458;2023-09-12T04:57:05;6.10;;;4.97;;
47659;SDS011;33403;43.608;1.458;2023-09-12T04:59:32;8.23;;;5.35;;
47659;SDS011;33403;43.608;1.458;2023-09-12T05:01:57;9.07;;;5.30;;
47659;SDS011;33403;43.608;1.458;2023-09-12T05:04:23;7.15;;;5.10;;
47659;SDS011;33403;43.608;1.458;2023-09-12T05:06:49;8.40;;;4.88;;
47659;SDS011;33403;43.608;1.458;2023-09-12T05:09:14;6.63;;;4.85;;
47659;SDS011;33403;43.608;1.458;2023-09-12T05:11:40;7.38;;;5.15;;
47659;SDS011;33403;43.608;1.458;2023-09-12T05:14:06;7.80;;;5.35;;
47659;SDS011;33403;43.608;1.458;2023-09-12T05:16:31;6.95;;;5.35;;
47659;SDS011;33403;43.608;1.458;2023-09-12T05:18:57;6.88;;;5.05;;
47659;SDS011;33403;43.608;1.458;2023-09-12T05:21:23;6.25;;;4.90;;
47659;SDS011;33403;43.608;1.458;2023-09-12T05:23:48;6.45;;;4.80;;
47659;SDS011;33403;43.608;1.458;2023-09-12T05:26:14;6.40;;;4.85;;
47659;SDS011;33403;43.608;1.458;2023-09-12T05:28:40;6.90;;;4.93;;
47659;SDS011;33403;43.608;1.458;2023-09-12T05:31:05;6.82;;;4.45;;
47659;SDS011;33403;43.608;1.458;2023-09-12T05:33:31;7.00;;;5.05;;
47659;SDS011;33403;43.608;1.458;2023-09-12T05:35:57;8.68;;;5.03;;
47659;SDS011;33403;43.608;1.458;2023-09-12T05:38:23;8.85;;;5.18;;
47659;SDS011;33403;43.608;1.458;2023-09-12T05:40:48;9.45;;;4.85;;
47659;SDS011;33403;43.608;1.458;2023-09-12T05:43:18;6.63;;;5.45;;
47659;SDS011;33403;43.608;1.458;2023-09-12T05:45:43;9.35;;;5.03;;
47659;SDS011;33403;43.608;1.458;2023-09-12T05:48:09;6.45;;;5.15;;
47659;SDS011;33403;43.608;1.458;2023-09-12T05:50:36;7.93;;;5.18;;
47659;SDS011;33403;43.608;1.458;2023-09-12T05:53:01;7.25;;;5.22;;
47659;SDS011;33403;43.608;1.458;2023-09-12T05:55:27;8.23;;;5.20;;
47659;SDS011;33403;43.608;1.458;2023-09-12T05:57:53;8.05;;;5.07;;
47659;SDS011;33403;43.608;1.458;2023-09-12T06:00:19;9.95;;;5.15;;
47659;SDS011;33403;43.608;1.458;2023-09-12T06:02:46;6.88;;;5.18;;
47659;SDS011;33403;43.608;1.458;2023-09-12T06:05:12;8.30;;;5.47;;
47659;SDS011;33403;43.608;1.458;2023-09-12T06:07:38;6.30;;;5.38;;
47659;SDS011;33403;43.608;1.458;2023-09-12T06:10:05;8.30;;;5.35;;
47659;SDS011;33403;43.608;1.458;2023-09-12T06:12:32;7.68;;;5.15;;
47659;SDS011;33403;43.608;1.458;2023-09-12T06:14:58;7.07;;;5.47;;
47659;SDS011;33403;43.608;1.458;2023-09-12T06:17:24;6.88;;;5.60;;
47659;SDS011;33403;43.608;1.458;2023-09-12T06:19:50;6.53;;;5.28;;
47659;SDS011;33403;43.608;1.458;2023-09-12T06:22:16;9.10;;;5.68;;
47659;SDS011;33403;43.608;1.458;2023-09-12T06:24:42;7.63;;;5.40;;
47659;SDS011;33403;43.608;1.458;2023-09-12T06:27:08;7.60;;;5.32;;
47659;SDS011;33403;43.608;1.458;2023-09-12T06:29:37;6.97;;;4.70;;
47659;SDS011;33403;43.608;1.458;2023-09-12T06:32:03;8.00;;;5.30;;
47659;SDS011;33403;43.608;1.458;2023-09-12T06:34:29;6.95;;;5.20;;
47659;SDS011;33403;43.608;1.458;2023-09-12T06:36:54;9.50;;;5.55;;
47659;SDS011;33403;43.608;1.458;2023-09-12T06:39:20;8.20;;;5.75;;
47659;SDS011;33403;43.608;1.458;2023-09-12T06:41:46;8.77;;;5.30;;
47659;SDS011;33403;43.608;1.458;2023-09-12T06:44:11;8.18;;;5.15;;
47659;SDS011;33403;43.608;1.458;2023-09-12T06:46:37;7.68;;;5.13;;
47659;SDS011;33403;43.608;1.458;2023-09-12T06:49:03;8.50;;;5.53;;
47659;SDS011;33403;43.608;1.458;2023-09-12T06:51:29;8.23;;;5.35;;
47659;SDS011;33403;43.608;1.458;2023-09-12T06:53:55;6.50;;;4.68;;
47659;SDS011;33403;43.608;1.458;2023-09-12T06:56:20;7.35;;;4.25;;
47659;SDS011;33403;43.608;1.458;2023-09-12T06:58:47;6.70;;;4.95;;
47659;SDS011;33403;43.608;1.458;2023-09-12T07:01:18;6.43;;;4.97;;
47659;SDS011;33403;43.608;1.458;2023-09-12T07:03:43;6.65;;;4.45;;
47659;SDS011;33403;43.608;1.458;2023-09-12T07:06:09;8.07;;;4.47;;
47659;SDS011;33403;43.608;1.458;2023-09-12T07:08:35;5.60;;;4.40;;
47659;SDS011;33403;43.608;1.458;2023-09-12T07:11:01;7.57;;;4.35;;
47659;SDS011;33403;43.608;1.458;2023-09-12T07:13:30;4.97;;;4.40;;
47659;SDS011;33403;43.608;1.458;2023-09-12T07:15:57;7.70;;;5.32;;
47659;SDS011;33403;43.608;1.458;2023-09-12T07:18:23;7.15;;;5.20;;
47659;SDS011;33403;43.608;1.458;2023-09-12T07:20:59;8.93;;;5.32;;
47659;SDS011;33403;43.608;1.458;2023-09-12T07:23:25;7.15;;;5.47;;
47659;SDS011;33403;43.608;1.458;2023-09-12T07:25:51;8.02;;;5.13;;
47659;SDS011;33403;43.608;1.458;2023-09-12T07:28:17;6.85;;;5.65;;
47659;SDS011;33403;43.608;1.458;2023-09-12T07:30:45;7.13;;;5.28;;
47659;SDS011;33403;43.608;1.458;2023-09-12T07:33:11;7.90;;;5.05;;
47659;SDS011;33403;43.608;1.458;2023-09-12T07:35:37;8.13;;;4.90;;
47659;SDS011;33403;43.608;1.458;2023-09-12T07:38:03;10.32;;;5.18;;
47659;SDS011;33403;43.608;1.458;2023-09-12T07:40:29;8.00;;;4.90;;
47659;SDS011;33403;43.608;1.458;2023-09-12T07:42:54;9.55;;;5.75;;
47659;SDS011;33403;43.608;1.458;2023-09-12T07:45:20;8.55;;;6.15;;
47659;SDS011;33403;43.608;1.458;2023-09-12T07:47:46;11.82;;;7.70;;
47659;SDS011;33403;43.608;1.458;2023-09-12T07:50:12;15.68;;;7.80;;
47659;SDS011;33403;43.608;1.458;2023-09-12T07:52:38;12.98;;;7.85;;
47659;SDS011;33403;43.608;1.458;2023-09-12T07:55:03;16.73;;;8.77;;
47659;SDS011;33403;43.608;1.458;2023-09-12T07:57:30;13.55;;;8.40;;
47659;SDS011;33403;43.608;1.458;2023-09-12T07:59:56;13.82;;;7.43;;
47659;SDS011;33403;43.608;1.458;2023-09-12T08:02:22;10.18;;;7.32;;
47659;SDS011;33403;43.608;1.458;2023-09-12T08:04:51;12.48;;;8.18;;
47659;SDS011;33403;43.608;1.458;2023-09-12T08:07:18;13.00;;;8.27;;
47659;SDS011;33403;43.608;1.458;2023-09-12T08:10:18;13.25;;;8.43;;
47659;SDS011;33403;43.608;1.458;2023-09-12T08:12:36;12.73;;;7.78;;
47659;SDS011;33403;43.608;1.458;2023-09-12T08:15:06;11.55;;;7.10;;
47659;SDS011;33403;43.608;1.458;2023-09-12T08:17:33;11.95;;;6.90;;
47659;SDS011;33403;43.608;1.458;2023-09-12T08:19:58;11.73;;;6.80;;
47659;SDS011;33403;43.608;1.458;2023-09-12T08:22:24;10.05;;;6.38;;
47659;SDS011;33403;43.608;1.458;2023-09-12T08:24:49;11.95;;;6.65;;
47659;SDS011;33403;43.608;1.458;2023-09-12T08:27:15;11.85;;;6.65;;
47659;SDS011;33403;43.608;1.458;2023-09-12T08:29:41;11.02;;;6.47;;
47659;SDS011;33403;43.608;1.458;2023-09-12T08:32:08;12.45;;;6.85;;
47659;SDS011;33403;43.608;1.458;2023-09-12T08:34:34;9.68;;;6.30;;
47659;SDS011;33403;43.608;1.458;2023-09-12T08:36:59;11.68;;;6.68;;
47659;SDS011;33403;43.608;1.458;2023-09-12T08:39:26;10.80;;;6.80;;
47659;SDS011;33403;43.608;1.458;2023-09-12T08:41:53;10.30;;;6.60;;
47659;SDS011;33403;43.608;1.458;2023-09-12T08:44:19;9.18;;;6.50;;
47659;SDS011;33403;43.608;1.458;2023-09-12T08:46:46;9.65;;;6.55;;
47659;SDS011;33403;43.608;1.458;2023-09-12T08:49:12;9.32;;;6.20;;
47659;SDS011;33403;43.608;1.458;2023-09-12T08:51:41;10.63;;;6.78;;
47659;SDS011;33403;43.608;1.458;2023-09-12T08:54:07;12.05;;;6.70;;
47659;SDS011;33403;43.608;1.458;2023-09-12T08:56:34;10.65;;;7.03;;
47659;SDS011;33403;43.608;1.458;2023-09-12T08:59:02;10.65;;;6.75;;
47659;SDS011;33403;43.608;1.458;2023-09-12T09:01:33;11.05;;;6.80;;
47659;SDS011;33403;43.608;1.458;2023-09-12T09:04:01;10.68;;;7.22;;
47659;SDS011;33403;43.608;1.458;2023-09-12T09:06:28;10.27;;;6.95;;
47659;SDS011;33403;43.608;1.458;2023-09-12T09:08:56;12.23;;;7.75;;
47659;SDS011;33403;43.608;1.458;2023-09-12T09:11:24;11.82;;;6.90;;
47659;SDS011;33403;43.608;1.458;2023-09-12T09:13:52;10.52;;;7.15;;
47659;SDS011;33403;43.608;1.458;2023-09-12T09:16:18;9.10;;;6.65;;
47659;SDS011;33403;43.608;1.458;2023-09-12T09:19:03;9.70;;;6.78;;
47659;SDS011;33403;43.608;1.458;2023-09-12T09:21:34;10.57;;;7.13;;
47659;SDS011;33403;43.608;1.458;2023-09-12T09:24:01;9.32;;;6.93;;
47659;SDS011;33403;43.608;1.458;2023-09-12T09:29:24;8.10;;;5.95;;
47659;SDS011;33403;43.608;1.458;2023-09-12T09:31:50;10.18;;;6.65;;
47659;SDS011;33403;43.608;1.458;2023-09-12T09:34:17;11.48;;;6.65;;
47659;SDS011;33403;43.608;1.458;2023-09-12T09:36:44;10.50;;;6.30;;
47659;SDS011;33403;43.608;1.458;2023-09-12T09:39:20;8.10;;;6.05;;
47659;SDS011;33403;43.608;1.458;2023-09-12T09:41:48;10.50;;;5.95;;
47659;SDS011;33403;43.608;1.458;2023-09-12T09:44:14;8.70;;;6.03;;
47659;SDS011;33403;43.608;1.458;2023-09-12T09:46:43;11.27;;;6.47;;
47659;SDS011;33403;43.608;1.458;2023-09-12T09:49:10;12.05;;;6.05;;
47659;SDS011;33403;43.608;1.458;2023-09-12T09:51:43;10.80;;;6.22;;
47659;SDS011;33403;43.608;1.458;2023-09-12T09:54:09;9.45;;;6.28;;
47659;SDS011;33403;43.608;1.458;2023-09-12T09:59:13;7.43;;;5.10;;
47659;SDS011;33403;43.608;1.458;2023-09-12T10:01:41;7.97;;;5.53;;
47659;SDS011;33403;43.608;1.458;2023-09-12T10:04:08;7.60;;;4.90;;
47659;SDS011;33403;43.608;1.458;2023-09-12T10:06:35;8.00;;;5.35;;
47659;SDS011;33403;43.608;1.458;2023-09-12T10:09:01;11.20;;;5.90;;
47659;SDS011;33403;43.608;1.458;2023-09-12T10:11:34;5.38;;;4.80;;
47659;SDS011;33403;43.608;1.458;2023-09-12T10:14:02;7.97;;;5.32;;
47659;SDS011;33403;43.608;1.458;2023-09-12T10:16:29;5.93;;;5.00;;
47659;SDS011;33403;43.608;1.458;2023-09-12T10:19:38;7.68;;;5.20;;
47659;SDS011;33403;43.608;1.458;2023-09-12T10:24:20;7.70;;;5.20;;
47659;SDS011;33403;43.608;1.458;2023-09-12T10:26:48;6.55;;;4.68;;
47659;SDS011;33403;43.608;1.458;2023-09-12T10:29:16;6.60;;;5.30;;
47659;SDS011;33403;43.608;1.458;2023-09-12T10:31:42;7.00;;;5.40;;
47659;SDS011;33403;43.608;1.458;2023-09-12T10:34:10;7.05;;;5.43;;
47659;SDS011;33403;43.608;1.458;2023-09-12T10:36:39;7.68;;;4.70;;
47659;SDS011;33403;43.608;1.458;2023-09-12T10:39:06;6.55;;;5.55;;
47659;SDS011;33403;43.608;1.458;2023-09-12T10:41:35;7.57;;;5.18;;
47659;SDS011;33403;43.608;1.458;2023-09-12T10:44:02;7.68;;;4.88;;
47659;SDS011;33403;43.608;1.458;2023-09-12T10:46:38;6.35;;;5.30;;
47659;SDS011;33403;43.608;1.458;2023-09-12T10:49:08;7.75;;;5.60;;
47659;SDS011;33403;43.608;1.458;2023-09-12T10:51:39;6.65;;;5.07;;
47659;SDS011;33403;43.608;1.458;2023-09-12T10:54:06;7.72;;;5.22;;
47659;SDS011;33403;43.608;1.458;2023-09-12T10:56:35;7.70;;;5.47;;
47659;SDS011;33403;43.608;1.458;2023-09-12T11:01:31;7.20;;;5.57;;
47659;SDS011;33403;43.608;1.458;2023-09-12T11:03:58;8.18;;;5.65;;
47659;SDS011;33403;43.608;1.458;2023-09-12T11:06:53;8.15;;;6.03;;
47659;SDS011;33403;43.608;1.458;2023-09-12T11:09:23;10.65;;;6.50;;
47659;SDS011;33403;43.608;1.458;2023-09-12T11:14:23;9.95;;;6.60;;
47659;SDS011;33403;43.608;1.458;2023-09-12T11:19:45;9.77;;;5.30;;
47659;SDS011;33403;43.608;1.458;2023-09-12T11:22:35;7.15;;;5.45;;
47659;SDS011;33403;43.608;1.458;2023-09-12T11:25:04;6.13;;;5.18;;
47659;SDS011;33403;43.608;1.458;2023-09-12T11:28:22;6.85;;;5.07;;
47659;SDS011;33403;43.608;1.458;2023-09-12T11:30:29;7.80;;;5.38;;
47659;SDS011;33403;43.608;1.458;2023-09-12T11:32:59;6.82;;;5.30;;
47659;SDS011;33403;43.608;1.458;2023-09-12T11:35:29;6.18;;;5.40;;
47659;SDS011;33403;43.608;1.458;2023-09-12T11:37:56;7.18;;;5.45;;
47659;SDS011;33403;43.608;1.458;2023-09-12T11:42:57;7.55;;;5.85;;
47659;SDS011;33403;43.608;1.458;2023-09-12T11:45:23;6.65;;;5.57;;
47659;SDS011;33403;43.608;1.458;2023-09-12T11:47:49;9.10;;;5.68;;
47659;SDS011;33403;43.608;1.458;2023-09-12T11:50:34;6.55;;;5.20;;
47659;SDS011;33403;43.608;1.458;2023-09-12T11:53:07;9.52;;;5.85;;
47659;SDS011;33403;43.608;1.458;2023-09-12T11:55:43;9.25;;;6.00;;
47659;SDS011;33403;43.608;1.458;2023-09-12T11:58:10;9.70;;;5.70;;
47659;SDS011;33403;43.608;1.458;2023-09-12T12:00:42;8.55;;;5.50;;
47659;SDS011;33403;43.608;1.458;2023-09-12T12:03:12;10.15;;;6.00;;
47659;SDS011;33403;43.608;1.458;2023-09-12T12:05:39;7.75;;;5.35;;
47659;SDS011;33403;43.608;1.458;2023-09-12T12:08:06;7.43;;;5.50;;
47659;SDS011;33403;43.608;1.458;2023-09-12T12:10:33;7.90;;;5.00;;
47659;SDS011;33403;43.608;1.458;2023-09-12T12:12:59;9.57;;;5.70;;
47659;SDS011;33403;43.608;1.458;2023-09-12T12:15:27;7.30;;;5.13;;
47659;SDS011;33403;43.608;1.458;2023-09-12T12:17:56;8.18;;;5.47;;
47659;SDS011;33403;43.608;1.458;2023-09-12T12:20:22;8.25;;;5.55;;
47659;SDS011;33403;43.608;1.458;2023-09-12T12:22:48;6.85;;;5.60;;
47659;SDS011;33403;43.608;1.458;2023-09-12T12:25:16;8.65;;;5.85;;
47659;SDS011;33403;43.608;1.458;2023-09-12T12:27:42;8.57;;;5.43;;
47659;SDS011;33403;43.608;1.458;2023-09-12T12:30:09;9.52;;;5.80;;
47659;SDS011;33403;43.608;1.458;2023-09-12T12:32:43;8.65;;;5.60;;
47659;SDS011;33403;43.608;1.458;2023-09-12T12:35:19;7.57;;;5.65;;
47659;SDS011;33403;43.608;1.458;2023-09-12T12:37:47;7.43;;;5.50;;
47659;SDS011;33403;43.608;1.458;2023-09-12T12:40:14;8.15;;;5.40;;
47659;SDS011;33403;43.608;1.458;2023-09-12T12:42:40;7.95;;;5.30;;
47659;SDS011;33403;43.608;1.458;2023-09-12T12:45:16;6.93;;;5.45;;
47659;SDS011;33403;43.608;1.458;2023-09-12T12:47:50;7.07;;;5.32;;
47659;SDS011;33403;43.608;1.458;2023-09-12T12:50:17;7.32;;;5.10;;
47659;SDS011;33403;43.608;1.458;2023-09-12T12:52:47;8.60;;;5.80;;
47659;SDS011;33403;43.608;1.458;2023-09-12T12:55:14;10.48;;;5.70;;
47659;SDS011;33403;43.608;1.458;2023-09-12T12:57:42;7.68;;;5.75;;
47659;SDS011;33403;43.608;1.458;2023-09-12T13:00:15;8.70;;;5.78;;
47659;SDS011;33403;43.608;1.458;2023-09-12T13:02:43;8.27;;;5.75;;
47659;SDS011;33403;43.608;1.458;2023-09-12T13:05:20;9.70;;;6.07;;
47659;SDS011;33403;43.608;1.458;2023-09-12T13:07:49;9.30;;;6.10;;
47659;SDS011;33403;43.608;1.458;2023-09-12T13:10:16;10.02;;;6.05;;
47659;SDS011;33403;43.608;1.458;2023-09-12T13:12:42;7.35;;;5.93;;
47659;SDS011;33403;43.608;1.458;2023-09-12T13:15:10;8.95;;;5.53;;
47659;SDS011;33403;43.608;1.458;2023-09-12T13:17:36;8.98;;;6.15;;
47659;SDS011;33403;43.608;1.458;2023-09-12T13:20:03;8.77;;;6.65;;
47659;SDS011;33403;43.608;1.458;2023-09-12T13:22:29;9.98;;;5.72;;
47659;SDS011;33403;43.608;1.458;2023-09-12T13:24:54;9.85;;;6.18;;
47659;SDS011;33403;43.608;1.458;2023-09-12T13:27:20;8.02;;;6.07;;
47659;SDS011;33403;43.608;1.458;2023-09-12T13:29:46;8.75;;;6.32;;
47659;SDS011;33403;43.608;1.458;2023-09-12T13:32:13;9.20;;;6.05;;
47659;SDS011;33403;43.608;1.458;2023-09-12T13:34:40;7.88;;;6.07;;
47659;SDS011;33403;43.608;1.458;2023-09-12T13:37:06;7.95;;;6.47;;
47659;SDS011;33403;43.608;1.458;2023-09-12T13:39:31;8.15;;;6.00;;
47659;SDS011;33403;43.608;1.458;2023-09-12T13:41:57;9.45;;;6.20;;
47659;SDS011;33403;43.608;1.458;2023-09-12T13:44:24;8.25;;;5.93;;
47659;SDS011;33403;43.608;1.458;2023-09-12T13:46:50;8.07;;;6.40;;
47659;SDS011;33403;43.608;1.458;2023-09-12T13:49:16;8.15;;;5.95;;
47659;SDS011;33403;43.608;1.458;2023-09-12T13:51:41;7.15;;;6.00;;
47659;SDS011;33403;43.608;1.458;2023-09-12T13:54:07;9.05;;;5.95;;
47659;SDS011;33403;43.608;1.458;2023-09-12T13:56:39;10.73;;;6.45;;
47659;SDS011;33403;43.608;1.458;2023-09-12T13:59:05;8.45;;;6.32;;
47659;SDS011;33403;43.608;1.458;2023-09-12T14:01:31;8.00;;;6.28;;
47659;SDS011;33403;43.608;1.458;2023-09-12T14:03:57;6.50;;;5.65;;
47659;SDS011;33403;43.608;1.458;2023-09-12T14:06:23;10.40;;;6.43;;
47659;SDS011;33403;43.608;1.458;2023-09-12T14:08:48;9.25;;;6.43;;
47659;SDS011;33403;43.608;1.458;2023-09-12T14:11:14;7.88;;;6.45;;
47659;SDS011;33403;43.608;1.458;2023-09-12T14:13:40;8.73;;;6.32;;
47659;SDS011;33403;43.608;1.458;2023-09-12T14:16:06;8.88;;;6.13;;
47659;SDS011;33403;43.608;1.458;2023-09-12T14:18:31;8.82;;;6.30;;
47659;SDS011;33403;43.608;1.458;2023-09-12T14:20:57;9.68;;;5.88;;
47659;SDS011;33403;43.608;1.458;2023-09-12T14:23:22;10.30;;;6.25;;
47659;SDS011;33403;43.608;1.458;2023-09-12T14:25:48;9.52;;;5.72;;
47659;SDS011;33403;43.608;1.458;2023-09-12T14:28:14;7.55;;;6.20;;
47659;SDS011;33403;43.608;1.458;2023-09-12T14:30:39;7.60;;;6.00;;
47659;SDS011;33403;43.608;1.458;2023-09-12T14:33:09;6.75;;;5.95;;
47659;SDS011;33403;43.608;1.458;2023-09-12T14:35:35;12.07;;;6.25;;
47659;SDS011;33403;43.608;1.458;2023-09-12T14:38:01;9.30;;;6.20;;
47659;SDS011;33403;43.608;1.458;2023-09-12T14:40:27;9.30;;;5.88;;
47659;SDS011;33403;43.608;1.458;2023-09-12T14:42:53;6.78;;;5.45;;
47659;SDS011;33403;43.608;1.458;2023-09-12T14:45:19;7.50;;;5.80;;
47659;SDS011;33403;43.608;1.458;2023-09-12T14:47:44;7.68;;;6.10;;
47659;SDS011;33403;43.608;1.458;2023-09-12T14:50:10;9.32;;;5.85;;
47659;SDS011;33403;43.608;1.458;2023-09-12T14:52:36;7.03;;;5.18;;
47659;SDS011;33403;43.608;1.458;2023-09-12T14:55:03;9.27;;;6.03;;
47659;SDS011;33403;43.608;1.458;2023-09-12T14:57:29;9.10;;;5.68;;
47659;SDS011;33403;43.608;1.458;2023-09-12T14:59:55;7.45;;;6.00;;
47659;SDS011;33403;43.608;1.458;2023-09-12T15:02:22;6.68;;;4.95;;
47659;SDS011;33403;43.608;1.458;2023-09-12T15:04:49;8.82;;;5.25;;
47659;SDS011;33403;43.608;1.458;2023-09-12T15:07:15;7.40;;;5.15;;